createdAt,value
2023-03-20T00:03:17.523Z,100.00
2023-03-20T00:06:41.405Z,100.00
2023-03-20T00:10:05.553Z,100.00
2023-03-20T00:13:29.477Z,100.00
2023-03-20T00:16:53.866Z,100.00
2023-03-20T00:20:18.531Z,100.00
2023-03-20T00:23:42.536Z,100.00
2023-03-20T00:27:07.057Z,100.00
2023-03-20T00:30:32.317Z,100.00
2023-03-20T00:33:59.244Z,100.00
2023-03-20T00:37:23.022Z,100.00
2023-03-20T00:40:46.870Z,100.00
2023-03-20T00:44:28.958Z,100.00
2023-03-20T00:47:54.071Z,100.00
2023-03-20T00:51:19.617Z,100.00
2023-03-20T00:54:43.498Z,100.00
2023-03-20T00:58:07.771Z,100.00
2023-03-20T01:01:33.195Z,100.00
2023-03-20T01:04:57.049Z,100.00
2023-03-20T01:08:25.696Z,100.00
2023-03-20T01:11:49.665Z,100.00
2023-03-20T01:15:22.776Z,100.00
2023-03-20T01:18:46.561Z,100.00
2023-03-20T01:22:10.674Z,100.00
2023-03-20T01:25:34.866Z,100.00
2023-03-20T01:29:00.378Z,100.00
2023-03-20T01:32:25.073Z,100.00
2023-03-20T01:35:51.767Z,100.00
2023-03-20T01:39:15.865Z,100.00
2023-03-20T01:42:42.415Z,100.00
2023-03-20T01:46:32.017Z,100.00
2023-03-20T01:50:26.382Z,100.00
2023-03-20T01:54:12.300Z,100.00
2023-03-20T01:57:46.132Z,100.00
2023-03-20T02:01:14.596Z,100.00
2023-03-20T02:04:44.996Z,100.00
2023-03-20T02:08:18.359Z,100.00
2023-03-20T02:11:44.851Z,100.00
2023-03-20T02:15:09.442Z,100.00
2023-03-20T02:18:59.358Z,100.00
2023-03-20T02:22:49.602Z,100.00
2023-03-20T02:26:27.808Z,100.00
2023-03-20T02:29:59.252Z,100.00
2023-03-20T02:33:38.112Z,100.00
2023-03-20T02:37:23.182Z,100.00
2023-03-20T02:41:02.436Z,100.00
2023-03-20T02:44:26.297Z,100.00
2023-03-20T02:48:14.955Z,100.00
2023-03-20T02:51:58.203Z,100.00
2023-03-20T02:55:45.201Z,100.00
2023-03-20T02:59:20.723Z,100.00
2023-03-20T03:02:59.404Z,100.00
2023-03-20T03:06:29.865Z,100.00
2023-03-20T03:10:04.240Z,100.00
2023-03-20T03:13:32.633Z,100.00
2023-03-20T03:17:02.813Z,100.00
2023-03-20T03:20:35.134Z,100.00
2023-03-20T03:23:59.006Z,100.00
2023-03-20T03:27:30.823Z,100.00
2023-03-20T03:30:57.339Z,100.00
2023-03-20T03:34:25.185Z,100.00
2023-03-20T03:38:10.126Z,100.00
2023-03-20T03:41:41.441Z,100.00
2023-03-20T03:45:15.351Z,100.00
2023-03-20T03:48:47.065Z,100.00
2023-03-20T03:52:18.542Z,100.00
2023-03-20T03:55:51.262Z,100.00
2023-03-20T03:59:31.611Z,100.00
2023-03-20T04:02:58.416Z,100.00
2023-03-20T04:06:23.190Z,100.00
2023-03-20T04:09:47.953Z,100.00
2023-03-20T04:13:11.987Z,100.00
2023-03-20T04:16:36.158Z,100.00
2023-03-20T04:20:01.707Z,100.00
2023-03-20T04:23:25.666Z,100.00
2023-03-20T04:26:49.614Z,100.00
2023-03-20T04:30:14.194Z,100.00
2023-03-20T04:33:56.860Z,100.00
2023-03-20T04:37:38.750Z,100.00
2023-03-20T04:41:05.590Z,100.00
2023-03-20T04:44:29.900Z,100.00
2023-03-20T04:47:53.945Z,100.00
2023-03-20T04:51:19.762Z,100.00
2023-03-20T04:54:48.059Z,100.00
2023-03-20T04:58:12.306Z,100.00
2023-03-20T05:01:38.085Z,100.00
2023-03-20T05:05:02.394Z,100.00
2023-03-20T05:08:27.312Z,100.00
2023-03-20T05:11:55.667Z,100.00
2023-03-20T05:15:39.909Z,100.00
2023-03-20T05:19:27.834Z,100.00
2023-03-20T05:23:14.551Z,100.00
2023-03-20T05:26:48.629Z,100.00
2023-03-20T05:30:31.819Z,100.00
2023-03-20T05:34:22.705Z,100.00
2023-03-20T05:38:01.332Z,100.00
2023-03-20T05:41:45.828Z,100.00
2023-03-20T05:45:28.639Z,100.00
2023-03-20T05:49:30.574Z,100.00
2023-03-20T05:53:10.574Z,100.00
2023-03-20T05:56:59.189Z,100.00
2023-03-20T06:00:52.422Z,100.00
2023-03-20T06:04:39.450Z,100.00
2023-03-20T06:08:09.000Z,100.00
2023-03-20T06:11:35.477Z,100.00
2023-03-20T06:15:03.150Z,100.00
2023-03-20T06:18:28.879Z,100.00
2023-03-20T06:21:53.206Z,100.00
2023-03-20T06:25:18.333Z,100.00
2023-03-20T06:28:42.838Z,100.00
2023-03-20T06:32:10.896Z,100.00
2023-03-20T06:35:35.935Z,100.00
2023-03-20T06:39:00.410Z,100.00
2023-03-20T06:42:24.847Z,100.00
2023-03-20T06:45:49.190Z,100.00
2023-03-20T06:49:23.039Z,100.00
2023-03-20T06:52:47.544Z,100.00
2023-03-20T06:56:31.195Z,100.00
2023-03-20T06:59:54.992Z,100.00
2023-03-20T07:03:19.160Z,100.00
2023-03-20T07:06:44.509Z,100.00
2023-03-20T07:10:10.024Z,99.47
2023-03-20T07:13:34.528Z,97.66
2023-03-20T07:17:05.180Z,94.77
2023-03-20T07:20:30.734Z,91.69
2023-03-20T07:23:56.017Z,89.75
2023-03-20T07:27:20.157Z,88.19
2023-03-20T07:30:44.862Z,86.26
2023-03-20T07:34:13.235Z,84.54
2023-03-20T07:37:37.775Z,82.93
2023-03-20T07:41:01.863Z,81.08
2023-03-20T07:44:26.857Z,79.86
2023-03-20T07:47:51.241Z,78.13
2023-03-20T07:51:15.411Z,77.14
2023-03-20T07:54:39.276Z,76.04
2023-03-20T07:58:03.702Z,74.68
2023-03-20T08:01:28.512Z,72.28
2023-03-20T08:04:52.395Z,72.06
2023-03-20T08:08:16.363Z,70.38
2023-03-20T08:11:40.796Z,69.77
2023-03-20T08:15:05.045Z,68.20
2023-03-20T08:18:29.234Z,65.55
2023-03-20T08:21:53.433Z,64.70
2023-03-20T08:25:18.027Z,64.00
2023-03-20T08:28:47.559Z,60.57
2023-03-20T08:32:12.439Z,61.17
2023-03-20T08:35:36.767Z,61.17
2023-03-20T08:39:01.838Z,61.73
2023-03-20T08:42:25.752Z,62.29
2023-03-20T08:45:49.866Z,61.94
2023-03-20T08:49:14.437Z,60.88
2023-03-20T08:52:38.679Z,60.53
2023-03-20T08:56:03.032Z,59.71
2023-03-20T08:59:27.094Z,58.03
2023-03-20T09:02:51.940Z,57.07
2023-03-20T09:06:18.213Z,53.97
2023-03-20T09:09:42.275Z,50.88
2023-03-20T09:13:23.715Z,50.41
2023-03-20T09:16:50.002Z,51.77
2023-03-20T09:20:14.429Z,52.10
2023-03-20T09:23:38.479Z,50.97
2023-03-20T09:27:03.696Z,50.65
2023-03-20T09:30:27.779Z,50.94
2023-03-20T09:33:51.795Z,50.07
2023-03-20T09:37:15.854Z,49.37
2023-03-20T09:41:01.346Z,48.93
2023-03-20T09:44:28.605Z,49.39
2023-03-20T09:48:02.613Z,49.25
2023-03-20T09:51:46.448Z,49.36
2023-03-20T09:55:25.779Z,49.47
2023-03-20T09:58:56.993Z,48.66
2023-03-20T10:02:30.050Z,49.06
2023-03-20T10:06:03.619Z,48.67
2023-03-20T10:09:31.822Z,49.24
2023-03-20T10:13:13.800Z,49.17
2023-03-20T10:17:01.012Z,48.15
2023-03-20T10:20:36.329Z,47.63
2023-03-20T10:24:06.990Z,46.87
2023-03-20T10:27:36.978Z,46.28
2023-03-20T10:31:15.596Z,45.25
2023-03-20T10:34:56.736Z,45.83
2023-03-20T10:39:11.748Z,42.63
2023-03-20T10:42:41.097Z,43.92
2023-03-20T10:46:10.597Z,45.14
2023-03-20T10:49:56.025Z,45.19
2023-03-20T10:53:31.732Z,44.92
2023-03-20T10:56:58.409Z,44.46
2023-03-20T11:00:25.205Z,44.62
2023-03-20T11:03:49.372Z,44.46
2023-03-20T11:07:15.395Z,44.26
2023-03-20T11:10:41.638Z,44.37
2023-03-20T11:14:27.455Z,44.03
2023-03-20T11:17:59.399Z,43.33
2023-03-20T11:21:29.764Z,44.34
2023-03-20T11:24:58.898Z,44.92
2023-03-20T11:28:29.488Z,44.98
2023-03-20T11:31:53.813Z,44.74
2023-03-20T11:35:27.204Z,44.11
2023-03-20T11:38:52.368Z,43.57
2023-03-20T11:42:25.674Z,43.66
2023-03-20T11:45:59.472Z,43.07
2023-03-20T11:49:25.855Z,43.64
2023-03-20T11:52:49.869Z,42.71
2023-03-20T11:56:27.521Z,42.63
2023-03-20T11:59:52.181Z,42.21
2023-03-20T12:03:41.109Z,42.14
2023-03-20T12:07:20.752Z,42.37
2023-03-20T12:10:50.286Z,42.25
2023-03-20T12:14:45.994Z,42.45
2023-03-20T12:18:21.604Z,41.91
2023-03-20T12:22:04.651Z,41.23
2023-03-20T12:25:37.838Z,41.94
2023-03-20T12:29:21.967Z,42.51
2023-03-20T12:33:15.787Z,42.98
2023-03-20T12:36:45.463Z,42.17
2023-03-20T12:40:22.040Z,42.79
2023-03-20T12:44:01.536Z,42.57
2023-03-20T12:47:44.902Z,43.84
2023-03-20T12:51:21.959Z,43.60
2023-03-20T12:54:55.932Z,43.62
2023-03-20T12:58:28.650Z,43.97
2023-03-20T13:01:57.839Z,44.27
2023-03-20T13:05:32.358Z,44.90
2023-03-20T13:09:03.783Z,45.04
2023-03-20T13:12:53.128Z,45.87
2023-03-20T13:16:28.941Z,46.48
2023-03-20T13:20:11.036Z,46.66
2023-03-20T13:23:52.378Z,47.13
2023-03-20T13:28:00.410Z,47.55
2023-03-20T13:32:12.705Z,48.26
2023-03-20T13:35:37.266Z,48.47
2023-03-20T13:39:15.618Z,48.99
2023-03-20T13:43:14.348Z,48.31
2023-03-20T13:46:48.727Z,47.17
2023-03-20T13:50:38.442Z,47.01
2023-03-20T13:54:16.953Z,47.16
2023-03-20T13:57:59.670Z,47.34
2023-03-20T14:01:33.279Z,48.20
2023-03-20T14:05:27.880Z,49.27
2023-03-20T14:08:55.758Z,50.71
2023-03-20T14:12:24.451Z,52.08
2023-03-20T14:15:59.070Z,53.67
2023-03-20T14:19:26.536Z,55.02
2023-03-20T14:22:51.333Z,56.68
2023-03-20T14:26:27.267Z,57.96
2023-03-20T14:29:51.229Z,59.21
2023-03-20T14:33:35.067Z,60.41
2023-03-20T14:37:46.149Z,62.38
2023-03-20T14:41:52.037Z,66.12
2023-03-20T14:46:15.088Z,69.07
2023-03-20T14:50:24.075Z,70.96
2023-03-20T14:54:37.113Z,73.10
2023-03-20T14:59:03.064Z,75.27
2023-03-20T15:03:04.077Z,78.25
2023-03-20T15:07:16.997Z,81.47
2023-03-20T15:11:22.184Z,84.07
2023-03-20T15:15:24.230Z,87.04
2023-03-20T15:19:32.071Z,90.08
2023-03-20T15:23:30.035Z,92.79
2023-03-20T15:27:28.071Z,93.73
2023-03-20T15:31:39.017Z,96.29
2023-03-20T15:35:40.033Z,98.42
2023-03-20T15:39:43.987Z,100.00
2023-03-20T15:43:46.328Z,100.00
2023-03-20T15:47:43.961Z,100.00
2023-03-20T15:51:43.032Z,100.00
2023-03-20T15:55:43.038Z,100.00
2023-03-20T15:59:44.085Z,100.00
2023-03-20T16:03:48.027Z,100.00
2023-03-20T16:07:47.978Z,100.00
2023-03-20T16:11:54.987Z,100.00
2023-03-20T16:15:54.039Z,100.00
2023-03-20T16:19:52.955Z,100.00
2023-03-20T16:23:56.966Z,100.00
2023-03-20T16:27:55.964Z,100.00
2023-03-20T16:32:11.993Z,100.00
2023-03-20T16:36:11.012Z,100.00
2023-03-20T16:40:29.036Z,100.00
2023-03-20T16:44:34.983Z,100.00
2023-03-20T16:48:40.753Z,100.00
2023-03-20T16:52:42.002Z,100.00
2023-03-20T16:56:50.931Z,100.00
2023-03-20T17:01:10.926Z,100.00
2023-03-20T17:05:16.908Z,100.00
2023-03-20T17:09:27.881Z,100.00
2023-03-20T17:13:25.946Z,100.00
2023-03-20T17:17:31.931Z,100.00
2023-03-20T17:21:32.089Z,100.00
2023-03-20T17:25:29.928Z,100.00
2023-03-20T17:29:30.080Z,100.00
2023-03-20T17:33:29.880Z,100.00
2023-03-20T17:37:30.215Z,100.00
2023-03-20T17:41:30.956Z,100.00
2023-03-20T17:45:30.937Z,100.00
2023-03-20T17:49:33.843Z,100.00
2023-03-20T17:53:37.928Z,100.00
2023-03-20T17:57:52.864Z,100.00
2023-03-20T18:01:51.978Z,100.00
2023-03-20T18:05:49.930Z,100.00
2023-03-20T18:09:47.833Z,100.00
2023-03-20T18:13:45.829Z,100.00
2023-03-20T18:17:43.873Z,100.00
2023-03-20T18:21:41.975Z,100.00
2023-03-20T18:25:39.854Z,100.00
2023-03-20T18:29:37.850Z,100.00
2023-03-20T18:33:35.846Z,100.00
2023-03-20T18:37:33.894Z,100.00
2023-03-20T18:41:31.830Z,100.00
2023-03-20T18:45:29.770Z,100.00
2023-03-20T18:49:32.855Z,100.00
2023-03-20T18:53:30.843Z,100.00
2023-03-20T18:57:29.663Z,100.00
2023-03-20T19:01:28.876Z,100.00
2023-03-20T19:05:26.814Z,100.00
2023-03-20T19:09:26.845Z,100.00
2023-03-20T19:13:31.776Z,100.00
2023-03-20T19:17:29.726Z,100.00
2023-03-20T19:21:32.768Z,100.00
2023-03-20T19:25:30.721Z,100.00
2023-03-20T19:29:28.805Z,100.00
2023-03-20T19:33:26.796Z,100.00
2023-03-20T19:37:26.826Z,100.00
2023-03-20T19:41:25.684Z,100.00
2023-03-20T19:45:25.773Z,100.00
2023-03-20T19:49:32.421Z,100.00
2023-03-20T19:53:34.712Z,100.00
2023-03-20T19:57:32.769Z,100.00
2023-03-20T20:01:34.852Z,100.00
2023-03-20T20:05:37.679Z,100.00
2023-03-20T20:09:35.727Z,100.00
2023-03-20T20:14:03.752Z,100.00
2023-03-20T20:18:00.781Z,100.00
2023-03-20T20:22:24.755Z,100.00
2023-03-20T20:26:16.665Z,100.00
2023-03-20T20:30:14.687Z,100.00
2023-03-20T20:35:21.961Z,100.00
2023-03-20T20:38:49.279Z,100.00
2023-03-20T20:42:49.685Z,100.00
2023-03-20T20:46:47.621Z,100.00
2023-03-20T20:50:47.629Z,100.00
2023-03-20T20:54:48.645Z,100.00
2023-03-20T20:58:46.634Z,100.00
2023-03-20T21:02:46.702Z,100.00
2023-03-20T21:07:08.059Z,100.00
2023-03-20T21:11:02.591Z,100.00
2023-03-20T21:15:00.752Z,100.00
2023-03-20T21:18:58.657Z,100.00
2023-03-20T21:22:56.633Z,100.00
2023-03-20T21:26:54.581Z,100.00
2023-03-20T21:31:16.615Z,100.00
2023-03-20T21:35:12.583Z,100.00
2023-03-20T21:39:10.645Z,100.00
2023-03-20T21:43:08.621Z,100.00
2023-03-20T21:56:41.896Z,100.00
2023-03-20T22:05:10.983Z,100.00
2023-03-20T22:09:30.885Z,100.00
2023-03-20T22:14:05.844Z,100.00
2023-03-20T22:22:05.529Z,100.00
2023-03-20T22:47:29.638Z,100.00
2023-03-20T22:51:34.328Z,100.00
2023-03-20T22:55:34.501Z,100.00
2023-03-20T22:59:32.480Z,100.00
2023-03-20T23:03:41.014Z,100.00
2023-03-20T23:07:39.497Z,100.00
2023-03-20T23:11:39.487Z,100.00
2023-03-20T23:15:37.435Z,100.00
2023-03-20T23:19:46.903Z,100.00
2023-03-20T23:23:48.414Z,100.00
2023-03-20T23:27:46.443Z,100.00
2023-03-20T23:31:44.599Z,100.00
2023-03-20T23:35:42.504Z,100.00
2023-03-20T23:39:40.385Z,100.00
2023-03-20T23:43:38.428Z,100.00
2023-03-20T23:47:44.234Z,100.00
2023-03-20T23:51:42.472Z,100.00
2023-03-20T23:55:40.813Z,100.00
2023-03-20T23:59:39.540Z,100.00
